createdAt,value
2023-05-24T00:00:15.334Z,513.00
2023-05-24T00:01:15.367Z,508.00
2023-05-24T00:02:15.413Z,513.00
2023-05-24T00:03:15.630Z,510.00
2023-05-24T00:04:15.591Z,512.00
2023-05-24T00:05:15.573Z,507.00
2023-05-24T00:06:15.640Z,512.00
2023-05-24T00:07:15.683Z,516.00
2023-05-24T00:08:15.743Z,513.00
2023-05-24T00:09:15.775Z,515.00
2023-05-24T00:10:15.856Z,514.00
2023-05-24T00:11:15.864Z,513.00
2023-05-24T00:12:15.945Z,512.00
2023-05-24T00:13:15.986Z,514.00
2023-05-24T00:14:16.041Z,507.00
2023-05-24T00:15:16.097Z,513.00
2023-05-24T00:16:16.208Z,513.00
2023-05-24T00:17:16.206Z,513.00
2023-05-24T00:18:16.322Z,513.00
2023-05-24T00:19:16.306Z,513.00
2023-05-24T00:20:16.376Z,509.00
2023-05-24T00:21:16.433Z,508.00
2023-05-24T00:22:16.506Z,509.00
2023-05-24T00:23:16.579Z,505.00
2023-05-24T00:24:16.582Z,510.00
2023-05-24T00:25:16.628Z,510.00
2023-05-24T00:26:16.706Z,510.00
2023-05-24T00:27:16.718Z,512.00
2023-05-24T00:28:16.758Z,507.00
2023-05-24T00:29:16.848Z,512.00
2023-05-24T00:30:16.917Z,511.00
2023-05-24T00:31:16.984Z,510.00
2023-05-24T00:32:16.986Z,512.00
2023-05-24T00:33:17.036Z,511.00
2023-05-24T00:34:17.107Z,512.00
2023-05-24T00:35:17.187Z,504.00
2023-05-24T00:36:17.221Z,510.00
2023-05-24T00:37:17.265Z,512.00
2023-05-24T00:38:17.352Z,512.00
2023-05-24T00:39:17.393Z,514.00
2023-05-24T00:40:17.459Z,504.00
2023-05-24T00:41:17.511Z,507.00
2023-05-24T00:42:17.544Z,509.00
2023-05-24T00:43:17.621Z,512.00
2023-05-24T00:44:17.631Z,509.00
2023-05-24T00:45:17.691Z,512.00
2023-05-24T00:46:17.916Z,509.00
2023-05-24T00:47:17.815Z,511.00
2023-05-24T00:48:17.903Z,505.00
2023-05-24T00:49:17.932Z,507.00
2023-05-24T00:50:17.970Z,512.00
2023-05-24T00:51:18.027Z,511.00
2023-05-24T00:52:18.061Z,508.00
2023-05-24T00:53:18.096Z,505.00
2023-05-24T00:54:18.144Z,503.00
2023-05-24T00:55:18.210Z,508.00
2023-05-24T00:56:18.257Z,505.00
2023-05-24T00:57:18.289Z,512.00
2023-05-24T00:58:18.341Z,511.00
2023-05-24T00:59:18.411Z,507.00
2023-05-24T01:00:18.454Z,508.00
2023-05-24T01:01:18.586Z,506.00
2023-05-24T01:02:18.644Z,510.00
2023-05-24T01:03:18.739Z,503.00
2023-05-24T01:04:18.701Z,511.00
2023-05-24T01:05:18.740Z,504.00
2023-05-24T01:06:18.818Z,512.00
2023-05-24T01:07:18.855Z,506.00
2023-05-24T01:08:18.881Z,511.00
2023-05-24T01:09:18.969Z,511.00
2023-05-24T01:10:18.994Z,508.00
2023-05-24T01:11:19.050Z,501.00
2023-05-24T01:12:19.097Z,506.00
2023-05-24T01:13:19.153Z,507.00
2023-05-24T01:14:19.215Z,505.00
2023-05-24T01:15:19.284Z,508.00
2023-05-24T01:16:19.325Z,513.00
2023-05-24T01:17:19.361Z,510.00
2023-05-24T01:18:19.419Z,505.00
2023-05-24T01:19:19.493Z,511.00
2023-05-24T01:20:19.513Z,504.00
2023-05-24T01:21:19.567Z,507.00
2023-05-24T01:22:19.592Z,510.00
2023-05-24T01:23:19.685Z,508.00
2023-05-24T01:24:19.720Z,507.00
2023-05-24T01:25:19.775Z,507.00
2023-05-24T01:26:19.808Z,507.00
2023-05-24T01:27:19.867Z,508.00
2023-05-24T01:28:19.950Z,508.00
2023-05-24T01:29:19.967Z,507.00
2023-05-24T01:30:20.038Z,505.00
2023-05-24T01:31:20.106Z,505.00
2023-05-24T01:32:20.248Z,504.00
2023-05-24T01:33:20.194Z,505.00
2023-05-24T01:34:20.262Z,501.00
2023-05-24T01:35:20.308Z,505.00
2023-05-24T01:36:20.375Z,501.00
2023-05-24T01:37:20.401Z,502.00
2023-05-24T01:38:20.499Z,508.00
2023-05-24T01:39:20.523Z,504.00
2023-05-24T01:40:20.596Z,508.00
2023-05-24T01:41:20.661Z,507.00
2023-05-24T01:42:20.703Z,503.00
2023-05-24T01:43:20.737Z,509.00
2023-05-24T01:44:20.810Z,504.00
2023-05-24T01:45:20.851Z,504.00
2023-05-24T01:46:20.957Z,509.00
2023-05-24T01:47:21.012Z,502.00
2023-05-24T01:48:21.023Z,508.00
2023-05-24T01:49:21.101Z,511.00
2023-05-24T01:50:21.174Z,510.00
2023-05-24T01:51:21.201Z,504.00
2023-05-24T01:52:21.372Z,504.00
2023-05-24T01:53:21.382Z,507.00
2023-05-24T01:54:21.448Z,500.00
2023-05-24T01:55:21.429Z,509.00
2023-05-24T01:56:21.525Z,510.00
2023-05-24T01:57:21.558Z,509.00
2023-05-24T01:58:21.619Z,510.00
2023-05-24T01:59:21.659Z,504.00
2023-05-24T02:00:21.749Z,511.00
2023-05-24T02:01:21.872Z,507.00
2023-05-24T02:02:21.912Z,508.00
2023-05-24T02:03:21.946Z,511.00
2023-05-24T02:04:21.933Z,509.00
2023-05-24T02:05:21.999Z,508.00
2023-05-24T02:06:22.048Z,509.00
2023-05-24T02:07:22.141Z,514.00
2023-05-24T02:08:22.172Z,510.00
2023-05-24T02:09:22.297Z,509.00
2023-05-24T02:10:22.304Z,509.00
2023-05-24T02:11:22.407Z,514.00
2023-05-24T02:12:22.371Z,509.00
2023-05-24T02:13:22.450Z,508.00
2023-05-24T02:14:22.505Z,500.00
2023-05-24T02:15:22.558Z,512.00
2023-05-24T02:16:22.653Z,513.00
2023-05-24T02:17:22.741Z,508.00
2023-05-24T02:18:22.778Z,511.00
2023-05-24T02:19:22.788Z,510.00
2023-05-24T02:20:22.972Z,510.00
2023-05-24T02:21:22.915Z,508.00
2023-05-24T02:22:23.002Z,511.00
2023-05-24T02:23:23.050Z,511.00
2023-05-24T02:24:23.106Z,502.00
2023-05-24T02:25:23.164Z,511.00
2023-05-24T02:26:23.204Z,504.00
2023-05-24T02:27:23.271Z,509.00
2023-05-24T02:28:23.322Z,507.00
2023-05-24T02:29:23.352Z,507.00
2023-05-24T02:30:23.429Z,508.00
2023-05-24T02:31:23.537Z,507.00
2023-05-24T02:32:23.539Z,510.00
2023-05-24T02:33:23.589Z,505.00
2023-05-24T02:34:23.665Z,506.00
2023-05-24T02:35:23.693Z,511.00
2023-05-24T02:36:23.771Z,507.00
2023-05-24T02:37:23.838Z,510.00
2023-05-24T02:38:23.888Z,506.00
2023-05-24T02:39:23.994Z,506.00
2023-05-24T02:40:24.002Z,510.00
2023-05-24T02:41:24.072Z,509.00
2023-05-24T02:42:24.110Z,507.00
2023-05-24T02:43:24.168Z,508.00
2023-05-24T02:44:24.221Z,510.00
2023-05-24T02:45:24.401Z,505.00
2023-05-24T02:46:24.430Z,509.00
2023-05-24T02:47:24.417Z,511.00
2023-05-24T02:48:24.471Z,511.00
2023-05-24T02:49:24.508Z,513.00
2023-05-24T02:50:24.692Z,513.00
2023-05-24T02:51:24.631Z,513.00
2023-05-24T02:52:24.650Z,512.00
2023-05-24T02:53:24.714Z,503.00
2023-05-24T02:54:24.782Z,510.00
2023-05-24T02:55:24.787Z,508.00
2023-05-24T02:56:24.882Z,507.00
2023-05-24T02:57:24.924Z,508.00
2023-05-24T02:58:24.958Z,507.00
2023-05-24T02:59:25.058Z,505.00
2023-05-24T03:00:25.117Z,507.00
2023-05-24T03:01:25.195Z,508.00
2023-05-24T03:02:25.262Z,508.00
2023-05-24T03:03:25.335Z,512.00
2023-05-24T03:04:25.301Z,510.00
2023-05-24T03:05:25.387Z,502.00
2023-05-24T03:06:25.406Z,501.00
2023-05-24T03:07:25.469Z,509.00
2023-05-24T03:08:25.526Z,505.00
2023-05-24T03:09:25.600Z,507.00
2023-05-24T03:10:25.683Z,510.00
2023-05-24T03:11:25.681Z,508.00
2023-05-24T03:12:25.779Z,505.00
2023-05-24T03:13:25.803Z,508.00
2023-05-24T03:14:25.874Z,506.00
2023-05-24T03:15:25.900Z,507.00
2023-05-24T03:16:26.098Z,504.00
2023-05-24T03:17:26.082Z,504.00
2023-05-24T03:18:26.093Z,506.00
2023-05-24T03:19:26.149Z,506.00
2023-05-24T03:20:26.216Z,509.00
2023-05-24T03:21:26.300Z,506.00
2023-05-24T03:22:26.323Z,510.00
2023-05-24T03:23:26.366Z,510.00
2023-05-24T03:24:26.414Z,509.00
2023-05-24T03:25:26.453Z,510.00
2023-05-24T03:26:26.514Z,510.00
2023-05-24T03:27:26.568Z,509.00
2023-05-24T03:28:26.648Z,509.00
2023-05-24T03:29:26.711Z,506.00
2023-05-24T03:30:26.755Z,500.00
2023-05-24T03:31:26.868Z,505.00
2023-05-24T03:32:26.874Z,509.00
2023-05-24T03:33:26.898Z,506.00
2023-05-24T03:34:26.997Z,512.00
2023-05-24T03:35:26.996Z,506.00
2023-05-24T03:36:27.071Z,509.00
2023-05-24T03:37:27.118Z,509.00
2023-05-24T03:38:27.212Z,507.00
2023-05-24T03:39:27.249Z,509.00
2023-05-24T03:40:27.295Z,510.00
2023-05-24T03:41:27.346Z,504.00
2023-05-24T03:42:27.424Z,513.00
2023-05-24T03:43:27.474Z,510.00
2023-05-24T03:44:27.515Z,510.00
2023-05-24T03:45:38.382Z,506.00
2023-05-24T03:46:28.606Z,506.00
2023-05-24T03:47:27.585Z,507.00
2023-05-24T03:48:27.516Z,507.00
2023-05-24T03:49:27.538Z,508.00
2023-05-24T03:50:27.498Z,512.00
2023-05-24T03:51:27.484Z,506.00
2023-05-24T03:52:27.522Z,509.00
2023-05-24T03:53:27.472Z,511.00
2023-05-24T03:54:27.476Z,507.00
2023-05-24T03:55:27.551Z,505.00
2023-05-24T03:56:27.598Z,504.00
2023-05-24T03:57:27.613Z,507.00
2023-05-24T03:58:27.692Z,508.00
2023-05-24T03:59:27.750Z,510.00
2023-05-24T04:00:27.815Z,506.00
2023-05-24T04:01:34.194Z,507.00
2023-05-24T04:02:28.942Z,508.00
2023-05-24T04:03:27.904Z,508.00
2023-05-24T04:04:27.836Z,506.00
2023-05-24T04:05:27.818Z,505.00
2023-05-24T04:06:27.821Z,506.00
2023-05-24T04:07:27.801Z,505.00
2023-05-24T04:08:27.825Z,513.00
2023-05-24T04:09:27.796Z,509.00
2023-05-24T04:10:27.800Z,512.00
2023-05-24T04:11:27.826Z,507.00
2023-05-24T04:12:27.903Z,509.00
2023-05-24T04:13:27.924Z,511.00
2023-05-24T04:14:28.002Z,503.00
2023-05-24T04:15:28.088Z,513.00
2023-05-24T04:16:28.129Z,506.00
2023-05-24T04:17:28.437Z,511.00
2023-05-24T04:18:28.276Z,510.00
2023-05-24T04:19:28.568Z,510.00
2023-05-24T04:20:28.412Z,506.00
2023-05-24T04:21:28.412Z,507.00
2023-05-24T04:22:28.484Z,507.00
2023-05-24T04:23:28.555Z,504.00
2023-05-24T04:24:28.647Z,511.00
2023-05-24T04:25:28.660Z,507.00
2023-05-24T04:26:28.676Z,506.00
2023-05-24T04:27:28.717Z,509.00
2023-05-24T04:28:28.795Z,507.00
2023-05-24T04:29:28.852Z,510.00
2023-05-24T04:30:28.873Z,507.00
2023-05-24T04:31:28.956Z,508.00
2023-05-24T04:32:29.028Z,508.00
2023-05-24T04:33:28.979Z,507.00
2023-05-24T04:34:29.060Z,506.00
2023-05-24T04:35:29.108Z,507.00
2023-05-24T04:36:29.169Z,503.00
2023-05-24T04:37:29.200Z,508.00
2023-05-24T04:38:29.275Z,506.00
2023-05-24T04:39:29.317Z,509.00
2023-05-24T04:40:29.398Z,508.00
2023-05-24T04:41:29.455Z,508.00
2023-05-24T04:42:29.489Z,504.00
2023-05-24T04:43:29.551Z,505.00
2023-05-24T04:44:29.574Z,506.00
2023-05-24T04:45:29.632Z,506.00
2023-05-24T04:46:29.718Z,508.00
2023-05-24T04:47:29.786Z,507.00
2023-05-24T04:48:29.800Z,512.00
2023-05-24T04:49:29.869Z,509.00
2023-05-24T04:50:29.933Z,511.00
2023-05-24T04:51:30.003Z,510.00
2023-05-24T04:52:30.033Z,510.00
2023-05-24T04:53:30.101Z,510.00
2023-05-24T04:54:30.193Z,507.00
2023-05-24T04:55:30.220Z,509.00
2023-05-24T04:56:30.288Z,510.00
2023-05-24T04:57:30.339Z,512.00
2023-05-24T04:58:30.388Z,510.00
2023-05-24T04:59:30.488Z,509.00
2023-05-24T05:00:30.530Z,510.00
2023-05-24T05:01:30.601Z,503.00
2023-05-24T05:02:30.734Z,512.00
2023-05-24T05:03:30.886Z,504.00
2023-05-24T05:04:30.746Z,507.00
2023-05-24T05:05:30.820Z,510.00
2023-05-24T05:06:30.903Z,512.00
2023-05-24T05:07:30.938Z,506.00
2023-05-24T05:08:30.993Z,506.00
2023-05-24T05:09:31.060Z,503.00
2023-05-24T05:10:31.141Z,506.00
2023-05-24T05:11:31.172Z,509.00
2023-05-24T05:12:31.226Z,509.00
2023-05-24T05:13:31.300Z,505.00
2023-05-24T05:14:31.370Z,509.00
2023-05-24T05:15:31.408Z,512.00
2023-05-24T05:16:31.522Z,510.00
2023-05-24T05:17:31.592Z,511.00
2023-05-24T05:18:31.598Z,509.00
2023-05-24T05:19:31.679Z,510.00
2023-05-24T05:20:31.782Z,510.00
2023-05-24T05:21:31.818Z,506.00
2023-05-24T05:22:31.837Z,509.00
2023-05-24T05:23:31.920Z,507.00
2023-05-24T05:24:31.955Z,509.00
2023-05-24T05:25:32.012Z,508.00
2023-05-24T05:26:32.100Z,509.00
2023-05-24T05:27:32.122Z,510.00
2023-05-24T05:28:32.185Z,509.00
2023-05-24T05:29:32.226Z,508.00
2023-05-24T05:30:33.056Z,510.00
2023-05-24T05:31:32.358Z,510.00
2023-05-24T05:32:32.491Z,512.00
2023-05-24T05:33:32.504Z,509.00
2023-05-24T05:34:32.496Z,513.00
2023-05-24T05:35:32.538Z,509.00
2023-05-24T05:36:32.620Z,511.00
2023-05-24T05:37:32.696Z,555.00
2023-05-24T05:38:32.730Z,576.00
2023-05-24T05:39:32.791Z,545.00
2023-05-24T05:40:32.859Z,528.00
2023-05-24T05:41:32.931Z,518.00
2023-05-24T05:42:32.984Z,517.00
2023-05-24T05:43:33.025Z,516.00
2023-05-24T05:44:33.072Z,516.00
2023-05-24T05:45:33.133Z,516.00
2023-05-24T05:46:33.308Z,523.00
2023-05-24T05:47:33.270Z,532.00
2023-05-24T05:48:33.324Z,538.00
2023-05-24T05:49:33.378Z,541.00
2023-05-24T05:50:33.417Z,538.00
2023-05-24T05:51:33.530Z,536.00
2023-05-24T05:52:33.559Z,534.00
2023-05-24T05:53:33.634Z,533.00
2023-05-24T05:54:33.653Z,533.00
2023-05-24T05:55:33.753Z,532.00
2023-05-24T05:56:33.777Z,530.00
2023-05-24T05:57:33.868Z,526.00
2023-05-24T05:58:33.917Z,525.00
2023-05-24T05:59:33.969Z,525.00
2023-05-24T06:00:34.007Z,523.00
2023-05-24T06:01:34.101Z,525.00
2023-05-24T06:02:34.357Z,524.00
2023-05-24T06:03:34.514Z,528.00
2023-05-24T06:04:34.382Z,525.00
2023-05-24T06:05:34.352Z,528.00
2023-05-24T06:06:34.415Z,527.00
2023-05-24T06:07:34.442Z,529.00
2023-05-24T06:08:34.513Z,527.00
2023-05-24T06:09:34.603Z,529.00
2023-05-24T06:10:34.630Z,526.00
2023-05-24T06:11:34.711Z,527.00
2023-05-24T06:12:34.760Z,532.00
2023-05-24T06:13:34.811Z,525.00
2023-05-24T06:14:34.866Z,523.00
2023-05-24T06:15:34.926Z,531.00
2023-05-24T06:16:35.032Z,529.00
2023-05-24T06:17:35.118Z,530.00
2023-05-24T06:18:35.056Z,531.00
2023-05-24T06:19:35.131Z,534.00
2023-05-24T06:20:35.284Z,532.00
2023-05-24T06:21:35.257Z,530.00
2023-05-24T06:22:35.314Z,534.00
2023-05-24T06:23:35.370Z,532.00
2023-05-24T06:24:35.452Z,537.00
2023-05-24T06:25:35.470Z,536.00
2023-05-24T06:26:35.535Z,539.00
2023-05-24T06:27:35.582Z,535.00
2023-05-24T06:28:35.657Z,530.00
2023-05-24T06:29:35.721Z,534.00
2023-05-24T06:30:35.831Z,532.00
2023-05-24T06:31:35.889Z,534.00
2023-05-24T06:32:35.908Z,533.00
2023-05-24T06:33:37.923Z,535.00
2023-05-24T06:34:35.957Z,535.00
2023-05-24T06:35:36.009Z,538.00
2023-05-24T06:36:36.163Z,535.00
2023-05-24T06:37:36.151Z,536.00
2023-05-24T06:38:36.212Z,538.00
2023-05-24T06:39:36.226Z,535.00
2023-05-24T06:40:36.330Z,538.00
2023-05-24T06:41:36.396Z,537.00
2023-05-24T06:42:36.441Z,537.00
2023-05-24T06:43:36.478Z,543.00
2023-05-24T06:44:36.565Z,538.00
2023-05-24T06:45:36.635Z,538.00
2023-05-24T06:46:36.696Z,541.00
2023-05-24T06:47:36.946Z,538.00
2023-05-24T06:48:36.846Z,537.00
2023-05-24T06:49:36.854Z,541.00
2023-05-24T06:50:36.878Z,542.00
2023-05-24T06:51:36.943Z,542.00
2023-05-24T06:52:36.997Z,541.00
2023-05-24T06:53:37.054Z,544.00
2023-05-24T06:54:37.114Z,547.00
2023-05-24T06:55:37.176Z,541.00
2023-05-24T06:56:37.249Z,550.00
2023-05-24T06:57:37.372Z,541.00
2023-05-24T06:58:37.329Z,549.00
2023-05-24T06:59:37.434Z,546.00
2023-05-24T07:00:37.437Z,547.00
2023-05-24T07:01:37.584Z,551.00
2023-05-24T07:02:37.612Z,552.00
2023-05-24T07:03:37.647Z,549.00
2023-05-24T07:04:37.767Z,545.00
2023-05-24T07:05:37.740Z,550.00
2023-05-24T07:06:37.802Z,548.00
2023-05-24T07:07:37.850Z,553.00
2023-05-24T07:08:37.913Z,551.00
2023-05-24T07:09:37.955Z,549.00
2023-05-24T07:10:38.033Z,554.00
2023-05-24T07:11:38.097Z,557.00
2023-05-24T07:12:38.117Z,550.00
2023-05-24T07:13:38.195Z,560.00
2023-05-24T07:14:38.223Z,558.00
2023-05-24T07:15:38.294Z,559.00
2023-05-24T07:16:38.385Z,562.00
2023-05-24T07:17:38.450Z,562.00
2023-05-24T07:18:38.447Z,564.00
2023-05-24T07:19:38.515Z,560.00
2023-05-24T07:20:38.639Z,570.00
2023-05-24T07:21:38.669Z,567.00
2023-05-24T07:22:38.700Z,561.00
2023-05-24T07:23:38.727Z,568.00
2023-05-24T07:24:38.813Z,567.00
2023-05-24T07:25:38.823Z,565.00
2023-05-24T07:26:38.889Z,568.00
2023-05-24T07:27:38.927Z,568.00
2023-05-24T07:28:38.970Z,569.00
2023-05-24T07:29:39.064Z,569.00
2023-05-24T07:30:39.092Z,570.00
2023-05-24T07:31:39.189Z,572.00
2023-05-24T07:32:39.340Z,565.00
2023-05-24T07:33:39.325Z,572.00
2023-05-24T07:34:39.275Z,571.00
2023-05-24T07:35:39.329Z,569.00
2023-05-24T07:36:39.368Z,569.00
2023-05-24T07:37:39.463Z,567.00
2023-05-24T07:38:39.505Z,569.00
2023-05-24T07:39:39.517Z,568.00
2023-05-24T07:40:39.653Z,571.00
2023-05-24T07:41:39.640Z,571.00
2023-05-24T07:42:39.695Z,570.00
2023-05-24T07:43:39.760Z,577.00
2023-05-24T07:44:39.815Z,568.00
2023-05-24T07:45:40.025Z,574.00
2023-05-24T07:46:39.979Z,574.00
2023-05-24T07:47:39.991Z,577.00
2023-05-24T07:48:39.998Z,575.00
2023-05-24T07:49:40.091Z,570.00
2023-05-24T07:50:40.278Z,575.00
2023-05-24T07:51:40.179Z,577.00
2023-05-24T07:52:40.215Z,576.00
2023-05-24T07:53:40.271Z,573.00
2023-05-24T07:54:40.308Z,581.00
2023-05-24T07:55:40.568Z,578.00
2023-05-24T07:56:40.444Z,575.00
2023-05-24T07:57:40.494Z,575.00
2023-05-24T07:58:40.543Z,579.00
2023-05-24T07:59:40.598Z,579.00
2023-05-24T08:00:40.642Z,581.00
2023-05-24T08:01:40.714Z,572.00
2023-05-24T08:02:40.804Z,582.00
2023-05-24T08:03:40.894Z,585.00
2023-05-24T08:04:40.817Z,580.00
2023-05-24T08:05:41.123Z,583.00
2023-05-24T08:06:41.041Z,585.00
2023-05-24T08:07:40.954Z,589.00
2023-05-24T08:08:41.045Z,587.00
2023-05-24T08:09:41.068Z,589.00
2023-05-24T08:10:41.116Z,590.00
2023-05-24T08:11:41.160Z,585.00
2023-05-24T08:12:41.209Z,588.00
2023-05-24T08:13:41.233Z,593.00
2023-05-24T08:14:41.283Z,596.00
2023-05-24T08:15:41.532Z,592.00
2023-05-24T08:16:41.436Z,590.00
2023-05-24T08:17:41.537Z,594.00
2023-05-24T08:18:41.440Z,589.00
2023-05-24T08:19:41.535Z,590.00
2023-05-24T08:20:41.699Z,594.00
2023-05-24T08:21:41.652Z,593.00
2023-05-24T08:22:41.670Z,592.00
2023-05-24T08:23:41.737Z,591.00
2023-05-24T08:24:41.762Z,598.00
2023-05-24T08:25:42.044Z,589.00
2023-05-24T08:26:41.886Z,585.00
2023-05-24T08:27:41.889Z,592.00
2023-05-24T08:28:41.944Z,593.00
2023-05-24T08:29:42.024Z,598.00
2023-05-24T08:30:42.091Z,596.00
2023-05-24T08:31:42.245Z,591.00
2023-05-24T08:32:42.189Z,595.00
2023-05-24T08:33:42.191Z,593.00
2023-05-24T08:34:42.214Z,596.00
2023-05-24T08:35:42.522Z,595.00
2023-05-24T08:36:42.281Z,587.00
2023-05-24T08:37:42.330Z,595.00
2023-05-24T08:38:42.436Z,600.00
2023-05-24T08:39:42.427Z,592.00
2023-05-24T08:40:42.479Z,593.00
2023-05-24T08:41:42.572Z,596.00
2023-05-24T08:42:42.599Z,598.00
2023-05-24T08:43:42.612Z,600.00
2023-05-24T08:44:42.660Z,596.00
2023-05-24T08:45:42.889Z,593.00
2023-05-24T08:46:42.799Z,599.00
2023-05-24T08:47:43.008Z,594.00
2023-05-24T08:48:42.884Z,597.00
2023-05-24T08:49:42.936Z,599.00
2023-05-24T08:50:42.948Z,599.00
2023-05-24T08:51:42.953Z,603.00
2023-05-24T08:52:42.992Z,608.00
2023-05-24T08:53:43.029Z,610.00
2023-05-24T08:54:43.082Z,622.00
2023-05-24T08:55:43.375Z,620.00
2023-05-24T08:56:43.159Z,624.00
2023-05-24T08:57:43.194Z,631.00
2023-05-24T08:58:43.235Z,625.00
2023-05-24T08:59:43.247Z,636.00
2023-05-24T09:00:43.319Z,638.00
2023-05-24T09:01:43.682Z,648.00
2023-05-24T09:02:43.429Z,650.00
2023-05-24T09:03:43.432Z,656.00
2023-05-24T09:04:43.448Z,663.00
2023-05-24T09:05:44.011Z,664.00
2023-05-24T09:06:43.471Z,671.00
2023-05-24T09:07:43.470Z,680.00
2023-05-24T09:08:44.117Z,690.00
2023-05-24T09:09:43.490Z,700.00
2023-05-24T09:10:54.110Z,712.00
2023-05-24T09:11:44.521Z,713.00
2023-05-24T09:12:43.492Z,717.00
2023-05-24T09:13:43.480Z,721.00
2023-05-24T09:14:43.487Z,735.00
2023-05-24T09:15:43.681Z,757.00
2023-05-24T09:16:43.513Z,755.00
2023-05-24T09:17:43.489Z,776.00
2023-05-24T09:18:43.443Z,794.00
2023-05-24T09:19:43.423Z,738.00
2023-05-24T09:20:43.697Z,747.00
2023-05-24T09:21:43.629Z,758.00
2023-05-24T09:22:43.430Z,791.00
2023-05-24T09:23:43.407Z,799.00
2023-05-24T09:24:43.417Z,822.00
2023-05-24T09:25:43.425Z,824.00
2023-05-24T09:26:43.384Z,824.00
2023-05-24T09:27:43.378Z,834.00
2023-05-24T09:28:43.381Z,840.00
2023-05-24T09:29:43.365Z,846.00
2023-05-24T09:30:43.582Z,846.00
2023-05-24T09:31:43.703Z,861.00
2023-05-24T09:32:43.382Z,870.00
2023-05-24T09:33:43.354Z,881.00
2023-05-24T09:34:43.351Z,881.00
2023-05-24T09:35:43.323Z,872.00
2023-05-24T09:36:43.304Z,886.00
2023-05-24T09:37:43.337Z,905.00
2023-05-24T09:38:43.325Z,936.00
2023-05-24T09:39:43.303Z,949.00
2023-05-24T09:40:43.627Z,952.00
2023-05-24T09:41:43.327Z,967.00
2023-05-24T09:42:43.300Z,973.00
2023-05-24T09:43:43.377Z,988.00
2023-05-24T09:44:43.444Z,990.00
2023-05-24T09:45:43.463Z,975.00
2023-05-24T09:46:43.557Z,977.00
2023-05-24T09:47:43.746Z,975.00
2023-05-24T09:48:43.655Z,946.00
2023-05-24T09:49:43.695Z,947.00
2023-05-24T09:50:43.925Z,969.00
2023-05-24T09:51:44.241Z,969.00
2023-05-24T09:52:43.848Z,955.00
2023-05-24T09:53:44.108Z,952.00
2023-05-24T09:54:44.648Z,951.00
2023-05-24T09:55:44.031Z,935.00
2023-05-24T09:56:44.071Z,919.00
2023-05-24T09:57:44.150Z,893.00
2023-05-24T09:58:44.138Z,879.00
2023-05-24T09:59:44.184Z,867.00
2023-05-24T10:00:44.415Z,870.00
2023-05-24T10:01:44.300Z,851.00
2023-05-24T10:02:53.142Z,836.00
2023-05-24T10:03:45.366Z,837.00
2023-05-24T10:04:44.384Z,836.00
2023-05-24T10:05:44.269Z,824.00
2023-05-24T10:06:44.265Z,817.00
2023-05-24T10:07:44.250Z,805.00
2023-05-24T10:08:44.276Z,813.00
2023-05-24T10:09:44.333Z,816.00
2023-05-24T10:10:44.594Z,799.00
2023-05-24T10:11:44.261Z,799.00
2023-05-24T10:12:44.293Z,773.00
2023-05-24T10:13:44.250Z,777.00
2023-05-24T10:14:44.267Z,768.00
2023-05-24T10:15:44.256Z,782.00
2023-05-24T10:16:44.300Z,765.00
2023-05-24T10:17:44.328Z,773.00
2023-05-24T10:18:44.255Z,754.00
2023-05-24T10:19:44.242Z,760.00
2023-05-24T10:20:44.709Z,762.00
2023-05-24T10:21:44.284Z,751.00
2023-05-24T10:22:44.232Z,749.00
2023-05-24T10:23:44.218Z,756.00
2023-05-24T10:24:44.223Z,757.00
2023-05-24T10:25:44.221Z,745.00
2023-05-24T10:26:44.244Z,740.00
2023-05-24T10:27:44.236Z,721.00
2023-05-24T10:28:44.205Z,737.00
2023-05-24T10:29:44.212Z,730.00
2023-05-24T10:30:44.410Z,724.00
2023-05-24T10:31:44.203Z,732.00
2023-05-24T10:32:44.218Z,729.00
2023-05-24T10:33:44.237Z,719.00
2023-05-24T10:34:44.222Z,735.00
2023-05-24T10:35:44.192Z,735.00
2023-05-24T10:36:44.211Z,727.00
2023-05-24T10:37:44.218Z,725.00
2023-05-24T10:38:44.245Z,713.00
2023-05-24T10:39:44.236Z,724.00
2023-05-24T10:40:44.189Z,718.00
2023-05-24T10:41:44.257Z,712.00
2023-05-24T10:42:44.232Z,718.00
2023-05-24T10:43:48.477Z,720.00
2023-05-24T10:44:45.210Z,721.00
2023-05-24T10:45:44.200Z,722.00
2023-05-24T10:46:44.263Z,729.00
2023-05-24T10:47:44.253Z,736.00
2023-05-24T10:48:44.201Z,751.00
2023-05-24T10:49:44.232Z,758.00
2023-05-24T10:50:44.475Z,737.00
2023-05-24T10:51:44.186Z,738.00
2023-05-24T10:52:44.165Z,721.00
2023-05-24T10:53:44.188Z,722.00
2023-05-24T10:54:59.636Z,704.00
2023-05-24T10:55:45.183Z,705.00
2023-05-24T10:56:44.169Z,696.00
2023-05-24T10:57:44.179Z,700.00
2023-05-24T10:58:44.144Z,697.00
2023-05-24T10:59:44.232Z,687.00
2023-05-24T11:00:44.159Z,691.00
2023-05-24T11:01:44.185Z,684.00
2023-05-24T11:02:44.210Z,689.00
2023-05-24T11:03:44.123Z,689.00
2023-05-24T11:04:44.149Z,687.00
2023-05-24T11:05:46.478Z,679.00
2023-05-24T11:06:44.313Z,674.00
2023-05-24T11:07:44.308Z,680.00
2023-05-24T11:08:44.324Z,663.00
2023-05-24T11:09:44.327Z,668.00
2023-05-24T11:10:44.661Z,663.00
2023-05-24T11:11:44.438Z,660.00
2023-05-24T11:12:44.369Z,664.00
2023-05-24T11:13:44.458Z,658.00
2023-05-24T11:14:44.397Z,658.00
2023-05-24T11:15:44.437Z,658.00
2023-05-24T11:16:44.551Z,659.00
2023-05-24T11:17:44.508Z,657.00
2023-05-24T11:18:44.491Z,665.00
2023-05-24T11:19:44.518Z,660.00
2023-05-24T11:20:44.947Z,660.00
2023-05-24T11:21:44.554Z,660.00
2023-05-24T11:22:44.582Z,656.00
2023-05-24T11:23:44.610Z,659.00
2023-05-24T11:24:44.605Z,662.00
2023-05-24T11:25:44.643Z,656.00
2023-05-24T11:26:44.674Z,653.00
2023-05-24T11:27:44.668Z,654.00
2023-05-24T11:28:44.758Z,654.00
2023-05-24T11:29:44.765Z,650.00
2023-05-24T11:30:44.881Z,659.00
2023-05-24T11:31:44.977Z,657.00
2023-05-24T11:32:44.846Z,660.00
2023-05-24T11:33:44.772Z,657.00
2023-05-24T11:34:44.810Z,652.00
2023-05-24T11:35:44.899Z,656.00
2023-05-24T11:36:44.886Z,652.00
2023-05-24T11:37:46.616Z,657.00
2023-05-24T11:38:44.916Z,658.00
2023-05-24T11:39:44.905Z,646.00
2023-05-24T11:40:44.972Z,656.00
2023-05-24T11:41:44.948Z,661.00
2023-05-24T11:42:44.986Z,667.00
2023-05-24T11:43:44.986Z,659.00
2023-05-24T11:44:45.025Z,669.00
2023-05-24T11:45:45.196Z,660.00
2023-05-24T11:46:45.073Z,665.00
2023-05-24T11:47:45.160Z,655.00
2023-05-24T11:48:45.086Z,663.00
2023-05-24T11:49:45.120Z,659.00
2023-05-24T11:50:49.685Z,659.00
2023-05-24T11:51:45.169Z,659.00
2023-05-24T11:52:45.164Z,659.00
2023-05-24T11:53:45.177Z,657.00
2023-05-24T11:54:45.174Z,654.00
2023-05-24T11:55:45.173Z,662.00
2023-05-24T11:56:45.685Z,661.00
2023-05-24T11:57:45.235Z,662.00
2023-05-24T11:58:45.194Z,658.00
2023-05-24T11:59:45.224Z,652.00
2023-05-24T12:00:45.201Z,656.00
2023-05-24T12:01:45.249Z,658.00
2023-05-24T12:02:45.260Z,659.00
2023-05-24T12:03:45.289Z,657.00
2023-05-24T12:04:45.298Z,659.00
2023-05-24T12:05:45.241Z,655.00
2023-05-24T12:06:45.672Z,664.00
2023-05-24T12:07:45.301Z,659.00
2023-05-24T12:08:45.272Z,655.00
2023-05-24T12:09:45.242Z,655.00
2023-05-24T12:10:45.423Z,654.00
2023-05-24T12:11:45.234Z,659.00
2023-05-24T12:12:46.177Z,658.00
2023-05-24T12:13:45.242Z,653.00
2023-05-24T12:14:45.277Z,658.00
2023-05-24T12:15:45.368Z,651.00
2023-05-24T12:16:45.345Z,655.00
2023-05-24T12:17:45.387Z,655.00
2023-05-24T12:18:55.052Z,654.00
2023-05-24T12:19:46.405Z,654.00
2023-05-24T12:20:45.756Z,651.00
2023-05-24T12:21:45.412Z,653.00
2023-05-24T12:22:45.419Z,655.00
2023-05-24T12:23:45.396Z,652.00
2023-05-24T12:24:45.421Z,654.00
2023-05-24T12:25:45.409Z,649.00
2023-05-24T12:26:45.708Z,650.00
2023-05-24T12:27:45.421Z,650.00
2023-05-24T12:28:45.400Z,646.00